地図

経路データ

SID SEASON NUMBER BASIN SUBBASIN NAME ISO_TIME NATURE LAT LON WMO_WIND WMO_PRES WMO_AGENCY TRACK_TYPE DIST2LAND LANDFALL IFLAG USA_AGENCY USA_ATCF_ID USA_LAT USA_LON USA_RECORD USA_STATUS USA_WIND USA_PRES USA_SSHS USA_R34_NE USA_R34_SE USA_R34_SW USA_R34_NW USA_R50_NE USA_R50_SE USA_R50_SW USA_R50_NW USA_R64_NE USA_R64_SE USA_R64_SW USA_R64_NW USA_POCI USA_ROCI USA_RMW USA_EYE TOKYO_LAT TOKYO_LON TOKYO_GRADE TOKYO_WIND TOKYO_PRES TOKYO_R50_DIR TOKYO_R50_LONG TOKYO_R50_SHORT TOKYO_R30_DIR TOKYO_R30_LONG TOKYO_R30_SHORT TOKYO_LAND CMA_LAT CMA_LON CMA_CAT CMA_WIND CMA_PRES HKO_LAT HKO_LON HKO_CAT HKO_WIND HKO_PRES NEWDELHI_LAT NEWDELHI_LON NEWDELHI_GRADE NEWDELHI_WIND NEWDELHI_PRES NEWDELHI_CI NEWDELHI_DP NEWDELHI_POCI REUNION_LAT REUNION_LON REUNION_TYPE REUNION_WIND REUNION_PRES REUNION_TNUM REUNION_CI REUNION_RMW REUNION_R34_NE REUNION_R34_SE REUNION_R34_SW REUNION_R34_NW REUNION_R50_NE REUNION_R50_SE REUNION_R50_SW REUNION_R50_NW REUNION_R64_NE REUNION_R64_SE REUNION_R64_SW REUNION_R64_NW BOM_LAT BOM_LON BOM_TYPE BOM_WIND BOM_PRES BOM_TNUM BOM_CI BOM_RMW BOM_R34_NE BOM_R34_SE BOM_R34_SW BOM_R34_NW BOM_R50_NE BOM_R50_SE BOM_R50_SW BOM_R50_NW BOM_R64_NE BOM_R64_SE BOM_R64_SW BOM_R64_NW BOM_ROCI BOM_POCI BOM_EYE BOM_POS_METHOD BOM_PRES_METHOD NADI_LAT NADI_LON NADI_CAT NADI_WIND NADI_PRES WELLINGTON_LAT WELLINGTON_LON WELLINGTON_WIND WELLINGTON_PRES DS824_LAT DS824_LON DS824_STAGE DS824_WIND DS824_PRES TD9636_LAT TD9636_LON TD9636_STAGE TD9636_WIND TD9636_PRES TD9635_LAT TD9635_LON TD9635_WIND TD9635_PRES TD9635_ROCI NEUMANN_LAT NEUMANN_LON NEUMANN_CLASS NEUMANN_WIND NEUMANN_PRES MLC_LAT MLC_LON MLC_CLASS MLC_WIND MLC_PRES USA_GUST BOM_GUST BOM_GUST_PER REUNION_GUST REUNION_GUST_PER USA_SEAHGT USA_SEARAD_NE USA_SEARAD_SE USA_SEARAD_SW USA_SEARAD_NW STORM_SPEED STORM_DIR
1934286N09144 1934 66 WP MM NOT_NAMED 1934-10-13 10:00:00 NR 9.30000 143.800 main 1314 1314 __________O___ -1 9.30000 143.800 7 21 274
1934286N09144 1934 66 WP MM NOT_NAMED 1934-10-13 12:00:00 NR 9.35458 143.091 main 1345 1302 __________P___ -1 9.35458 143.091 7 21 274
1934286N09144 1934 66 WP MM NOT_NAMED 1934-10-13 15:00:00 NR 9.43329 142.049 main 1302 1284 __________P___ -1 9.43329 142.049 7 20 274
1934286N09144 1934 66 WP MM NOT_NAMED 1934-10-13 18:00:00 NR 9.50772 141.064 main 1284 1259 __________P___ -1 9.50772 141.064 7 19 274
1934286N09144 1934 66 WP MM NOT_NAMED 1934-10-13 21:00:00 NR 9.57767 140.171 main 1259 1246 __________P___ -1 9.57767 140.171 7 17 275
1934286N09144 1934 66 WP MM NOT_NAMED 1934-10-13 22:00:00 NR 9.60000 139.900 main 1246 1228 __________O___ -1 9.60000 139.900 7 15 275
1934286N09144 1934 66 WP MM NOT_NAMED 1934-10-14 00:00:00 NR 9.64358 139.400 main 1228 1214 __________P___ -1 9.64358 139.400 7 14 275
1934286N09144 1934 66 WP MM NOT_NAMED 1934-10-14 03:00:00 NR 9.70974 138.733 main 1214 1205 __________P___ -1 9.70974 138.733 7 13 276
1934286N09144 1934 66 WP MM NOT_NAMED 1934-10-14 06:00:00 NR 9.78248 138.120 main 1208 1197 __________P___ -1 9.78248 138.120 7 12 277
1934286N09144 1934 66 WP MM NOT_NAMED 1934-10-14 09:00:00 NR 9.86779 137.511 main 1206 1202 __________P___ -1 9.86779 137.511 7 12 278
1934286N09144 1934 66 WP MM NOT_NAMED 1934-10-14 10:00:00 NR 9.90000 137.300 main 1202 1159 __________O___ -1 9.90000 137.300 7 13 278
1934286N09144 1934 66 WP MM NOT_NAMED 1934-10-14 12:00:00 NR 9.95817 136.860 main 1161 1089 __________P___ -1 9.95817 136.860 7 13 278
1934286N09144 1934 66 WP MM NOT_NAMED 1934-10-14 15:00:00 NR 10.0580 136.181 main 1089 1017 __________P___ -1 10.0580 136.181 7 14 279
1934286N09144 1934 66 WP MM NOT_NAMED 1934-10-14 18:00:00 NR 10.1816 135.461 main 1017 936 __________P___ -1 10.1816 135.461 7 15 281
1934286N09144 1934 66 WP MM NOT_NAMED 1934-10-14 21:00:00 NR 10.3386 134.678 main 936 906 __________P___ -1 10.3386 134.678 7 16 282
1934286N09144 1934 66 WP MM NOT_NAMED 1934-10-14 22:00:00 NR 10.4000 134.400 main 906 844 __________O___ -1 10.4000 134.400 7 18 282
1934286N09144 1934 66 WP MM NOT_NAMED 1934-10-15 00:00:00 NR 10.5305 133.797 main 844 745 __________P___ -1 10.5305 133.797 7 19 283
1934286N09144 1934 66 WP MM NOT_NAMED 1934-10-15 03:00:00 NR 10.7576 132.828 main 745 645 __________P___ -1 10.7576 132.828 7 20 284
1934286N09144 1934 66 WP MM NOT_NAMED 1934-10-15 06:00:00 NR 11.0163 131.822 main 645 546 __________P___ -1 11.0163 131.822 7 20 285
1934286N09144 1934 66 WP MM NOT_NAMED 1934-10-15 09:00:00 NR 11.3005 130.824 main 546 525 __________P___ -1 11.3005 130.824 7 20 286
1934286N09144 1934 66 WP MM NOT_NAMED 1934-10-15 10:00:00 NR 11.4000 130.500 main 514 452 __________O___ -1 11.4000 130.500 7 19 288
1934286N09144 1934 66 WP MM NOT_NAMED 1934-10-15 12:00:00 NR 11.5937 129.881 main 452 363 __________P___ -1 11.5937 129.881 7 19 289
1934286N09144 1934 66 WP MM NOT_NAMED 1934-10-15 15:00:00 NR 11.9035 128.976 main 363 282 __________P___ -1 11.9035 128.976 7 19 290
1934286N09144 1934 66 WP MM NOT_NAMED 1934-10-15 18:00:00 NR 12.2338 128.105 main 282 200 __________P___ -1 12.2338 128.105 7 18 292
1934286N09144 1934 66 WP MM NOT_NAMED 1934-10-15 21:00:00 NR 12.5810 127.270 main 200 172 __________P___ -1 12.5810 127.270 7 18 293
1934286N09144 1934 66 WP MM NOT_NAMED 1934-10-15 22:00:00 NR 12.7000 127.000 main 172 133 __________O___ -1 12.7000 127.000 3 17 296
1934286N09144 1934 66 WP MM NOT_NAMED 1934-10-16 00:00:00 NR 12.9584 126.482 main 140 109 __________P___ -1 12.9584 126.482 3 17 298
1934286N09144 1934 66 WP MM NOT_NAMED 1934-10-16 03:00:00 NR 13.3599 125.737 main 114 64 __________P___ -1 13.3599 125.737 3 16 299
1934286N09144 1934 66 WP MM NOT_NAMED 1934-10-16 06:00:00 NR 13.7504 125.005 main 64 10 __________P___ -1 13.7504 125.005 3 16 297
1934286N09144 1934 66 WP MM NOT_NAMED 1934-10-16 09:00:00 NR 14.0987 124.257 main 11 11 __________P___ -1 14.0987 124.257 3 16 295
1934286N09144 1934 66 WP MM NOT_NAMED 1934-10-16 10:00:00 NR 14.2000 124.000 main 24 24 __________O___ -1 14.2000 124.000 4 17 288
1934286N09144 1934 66 WP MM NOT_NAMED 1934-10-16 12:00:00 NR 14.3681 123.422 main 46 31 __________P___ -1 14.3681 123.422 4 18 285
1934286N09144 1934 66 WP MM NOT_NAMED 1934-10-16 15:00:00 NR 14.5697 122.529 main 44 0 __________P___ -1 14.5697 122.529 4 18 282
1934286N09144 1934 66 WP MM NOT_NAMED 1934-10-16 18:00:00 NR 14.7270 121.652 main 0 0 __________P___ -1 14.7270 121.652 4 17 280
1934286N09144 1934 66 WP MM NOT_NAMED 1934-10-16 21:00:00 NR 14.8585 120.845 main 0 0 __________P___ -1 14.8585 120.845 4 15 280
1934286N09144 1934 66 WP MM NOT_NAMED 1934-10-16 22:00:00 NR 14.9000 120.600 main 0 0 __________O___ -1 14.9000 120.600 4 13 282
1934286N09144 1934 66 WP MM NOT_NAMED 1934-10-17 00:00:00 NR 14.9987 120.178 main 0 0 __________P___ -1 14.9987 120.178 4 12 284
1934286N09144 1934 66 WP MM NOT_NAMED 1934-10-17 03:00:00 NR 15.1352 119.628 main 46 46 __________P___ -1 15.1352 119.628 4 10 284
1934286N09144 1934 66 WP MM NOT_NAMED 1934-10-17 06:00:00 NR 15.2581 119.137 main 86 86 __________P___ -1 15.2581 119.137 4 10 284
1934286N09144 1934 66 WP MM NOT_NAMED 1934-10-17 09:00:00 NR 15.3670 118.662 main 126 135 __________P___ -1 15.3670 118.662 4 9 283
1934286N09144 1934 66 WP MM NOT_NAMED 1934-10-17 10:00:00 NR 15.4000 118.500 main 144 144 __________O___ -1 15.4000 118.500 4 11 280
1934286N09144 1934 66 WP MM NOT_NAMED 1934-10-17 12:00:00 NR 15.4616 118.115 main 180 180 __________P___ -1 15.4616 118.115 4 11 279
1934286N09144 1934 66 WP MM NOT_NAMED 1934-10-17 15:00:00 NR 15.5413 117.532 main 242 242 __________P___ -1 15.5413 117.532 4 11 278
1934286N09144 1934 66 WP MM NOT_NAMED 1934-10-17 18:00:00 NR 15.6113 116.968 main 292 303 __________P___ -1 15.6113 116.968 4 10 277
1934286N09144 1934 66 WP MM NOT_NAMED 1934-10-17 21:00:00 NR 15.6776 116.454 main 344 354 __________P___ -1 15.6776 116.454 4 10 278
1934286N09144 1934 66 WP MM NOT_NAMED 1934-10-17 22:00:00 NR 15.7000 116.300 main 365 365 __________O___ -1 15.7000 116.300 4 8 280
1934286N09144 1934 66 WP MM NOT_NAMED 1934-10-18 00:00:00 NR 15.7494 116.034 main 397 396 __________P___ -1 15.7494 116.034 4 7 282
1934286N09144 1934 66 WP MM NOT_NAMED 1934-10-18 03:00:00 NR 15.8240 115.693 main 428 428 __________P___ -1 15.8240 115.693 4 6 284
1934286N09144 1934 66 WP MM NOT_NAMED 1934-10-18 06:00:00 NR 15.8992 115.392 main 460 460 __________P___ -1 15.8992 115.392 4 6 285
1934286N09144 1934 66 WP MM NOT_NAMED 1934-10-18 09:00:00 NR 15.9748 115.101 main 491 491 __________P___ -1 15.9748 115.101 4 6 285
1934286N09144 1934 66 WP MM NOT_NAMED 1934-10-18 10:00:00 NR 16.0000 115.000 main 502 502 __________O___ -1 16.0000 115.000 4 6 284
1934286N09144 1934 66 WP MM NOT_NAMED 1934-10-18 12:00:00 NR 16.0495 114.798 main 523 520 __________P___ -1 16.0495 114.798 4 6 284
1934286N09144 1934 66 WP MM NOT_NAMED 1934-10-18 15:00:00 NR 16.1240 114.490 main 520 488 __________P___ -1 16.1240 114.490 4 6 284
1934286N09144 1934 66 WP MM NOT_NAMED 1934-10-18 18:00:00 NR 16.1990 114.151 main 488 447 __________P___ -1 16.1990 114.151 4 7 282
1934286N09144 1934 66 WP MM NOT_NAMED 1934-10-18 21:00:00 NR 16.2746 113.751 main 447 431 __________P___ -1 16.2746 113.751 4 8 281
1934286N09144 1934 66 WP MM NOT_NAMED 1934-10-18 22:00:00 NR 16.3000 113.600 main 431 400 __________O___ -1 16.3000 113.600 4 9 280
1934286N09144 1934 66 WP MM NOT_NAMED 1934-10-19 00:00:00 NR 16.3553 113.265 main 400 354 __________P___ -1 16.3553 113.265 4 11 279
1934286N09144 1934 66 WP MM NOT_NAMED 1934-10-19 03:00:00 NR 16.4383 112.700 main 354 305 __________P___ -1 16.4383 112.700 4 12 278
1934286N09144 1934 66 WP MM NOT_NAMED 1934-10-19 06:00:00 NR 16.5157 112.078 main 305 250 __________P___ -1 16.5157 112.078 4 12 277
1934286N09144 1934 66 WP MM NOT_NAMED 1934-10-19 09:00:00 NR 16.5816 111.422 main 250 238 __________P___ -1 16.5816 111.422 4 13 276
1934286N09144 1934 66 WP MM NOT_NAMED 1934-10-19 10:00:00 NR 16.6000 111.200 main 238 213 __________O___ -1 16.6000 111.200 4 13 274
1934286N09144 1934 66 WP MM NOT_NAMED 1934-10-19 12:00:00 NR 16.6307 110.753 main 213 173 __________P___ -1 16.6307 110.753 4 13 273
1934286N09144 1934 66 WP MM NOT_NAMED 1934-10-19 15:00:00 NR 16.6634 110.080 main 173 141 __________P___ -1 16.6634 110.080 4 13 272
1934286N09144 1934 66 WP MM NOT_NAMED 1934-10-19 18:00:00 NR 16.6841 109.404 main 141 85 __________P___ -1 16.6841 109.404 4 13 271
1934286N09144 1934 66 WP MM NOT_NAMED 1934-10-19 21:00:00 NR 16.6968 108.726 main 85 70 __________P___ -1 16.6968 108.726 4 13 271
1934286N09144 1934 66 WP MM NOT_NAMED 1934-10-19 22:00:00 NR 16.7000 108.500 main 70 __________O___ -1 16.7000 108.500 7 13 271

デジタル台風データ・検索

IBTrACS Databaseについて

本データベースは、米国NOAAが公開する1842年以降の世界の熱帯低気圧のベストトラックデータアーカイブInternational Best Track Archive for Climate Stewardship (IBTrACS)を、ウェブで閲覧しやすい形式に変換したものです。

最終更新日:2021-12-06